sensor_id;sensor_type;location;lat;lon;timestamp;pressure;altitude;pressure_sealevel;temperature;humidity
47670;BME280;33408;52.062;11.722;2023-04-01T00:00:58;99265.97;;;9.44;100.00
47670;BME280;33408;52.062;11.722;2023-04-01T00:03:26;99267.81;;;9.41;100.00
47670;BME280;33408;52.062;11.722;2023-04-01T00:05:54;99263.38;;;9.44;100.00
47670;BME280;33408;52.062;11.722;2023-04-01T00:08:21;99269.22;;;9.49;100.00
47670;BME280;33408;52.062;11.722;2023-04-01T00:10:48;99270.25;;;9.45;100.00
47670;BME280;33408;52.062;11.722;2023-04-01T00:13:15;99265.28;;;9.39;100.00
47670;BME280;33408;52.062;11.722;2023-04-01T00:15:42;99270.31;;;9.44;100.00
47670;BME280;33408;52.062;11.722;2023-04-01T00:18:09;99265.91;;;9.46;100.00
47670;BME280;33408;52.062;11.722;2023-04-01T00:20:36;99268.59;;;9.43;100.00
47670;BME280;33408;52.062;11.722;2023-04-01T00:23:05;99269.31;;;9.46;100.00
47670;BME280;33408;52.062;11.722;2023-04-01T00:25:31;99269.25;;;9.48;100.00
47670;BME280;33408;52.062;11.722;2023-04-01T00:27:58;99270.47;;;9.39;100.00
47670;BME280;33408;52.062;11.722;2023-04-01T00:30:24;99279.13;;;9.38;100.00
47670;BME280;33408;52.062;11.722;2023-04-01T00:32:51;99279.13;;;9.38;100.00
47670;BME280;33408;52.062;11.722;2023-04-01T00:35:18;99272.09;;;9.42;100.00
47670;BME280;33408;52.062;11.722;2023-04-01T00:37:44;99271.41;;;9.37;100.00
47670;BME280;33408;52.062;11.722;2023-04-01T00:40:24;99272.94;;;9.42;100.00
47670;BME280;33408;52.062;11.722;2023-04-01T00:42:50;99273.06;;;9.39;100.00
47670;BME280;33408;52.062;11.722;2023-04-01T00:45:28;99273.22;;;9.35;100.00
47670;BME280;33408;52.062;11.722;2023-04-01T00:47:56;99272.22;;;9.39;100.00
47670;BME280;33408;52.062;11.722;2023-04-01T00:50:26;99267.94;;;9.38;100.00
47670;BME280;33408;52.062;11.722;2023-04-01T00:52:55;99270.63;;;9.35;100.00
47670;BME280;33408;52.062;11.722;2023-04-01T00:55:23;99278.56;;;9.30;100.00
47670;BME280;33408;52.062;11.722;2023-04-01T00:57:54;99272.38;;;9.34;100.00
47670;BME280;33408;52.062;11.722;2023-04-01T01:00:22;99274.06;;;9.35;100.00
47670;BME280;33408;52.062;11.722;2023-04-01T01:02:50;99278.38;;;9.35;100.00
47670;BME280;33408;52.062;11.722;2023-04-01T01:05:17;99281.16;;;9.30;100.00
47670;BME280;33408;52.062;11.722;2023-04-01T01:07:52;99287.91;;;9.34;100.00
47670;BME280;33408;52.062;11.722;2023-04-01T01:10:30;99287.09;;;9.32;100.00
47670;BME280;33408;52.062;11.722;2023-04-01T01:13:04;99283.16;;;9.22;100.00
47670;BME280;33408;52.062;11.722;2023-04-01T01:15:36;99288.78;;;9.33;100.00
47670;BME280;33408;52.062;11.722;2023-04-01T01:18:09;99290.72;;;9.28;100.00
47670;BME280;33408;52.062;11.722;2023-04-01T01:24:08;99286.38;;;9.28;100.00
47670;BME280;33408;52.062;11.722;2023-04-01T01:26:46;99286.31;;;9.30;100.00
47670;BME280;33408;52.062;11.722;2023-04-01T01:29:31;99282.16;;;9.26;100.00
47670;BME280;33408;52.062;11.722;2023-04-01T01:32:05;99281.09;;;9.31;100.00
47670;BME280;33408;52.062;11.722;2023-04-01T01:34:41;99280.59;;;9.22;100.00
47670;BME280;33408;52.062;11.722;2023-04-01T01:37:16;99282.06;;;9.29;100.00
47670;BME280;33408;52.062;11.722;2023-04-01T01:39:48;99286.53;;;9.24;100.00
47670;BME280;33408;52.062;11.722;2023-04-01T01:42:17;99282.16;;;9.26;100.00
47670;BME280;33408;52.062;11.722;2023-04-01T01:44:46;99285.66;;;9.25;100.00
47670;BME280;33408;52.062;11.722;2023-04-01T01:47:14;99284.06;;;9.21;100.00
47670;BME280;33408;52.062;11.722;2023-04-01T01:49:43;99289.13;;;9.24;100.00
47670;BME280;33408;52.062;11.722;2023-04-01T01:52:13;99287.44;;;9.23;100.00
47670;BME280;33408;52.062;11.722;2023-04-01T01:57:48;99291.13;;;9.16;100.00
47670;BME280;33408;52.062;11.722;2023-04-01T02:00:16;99290.03;;;9.23;100.00
47670;BME280;33408;52.062;11.722;2023-04-01T02:02:45;99288.19;;;9.26;100.00
47670;BME280;33408;52.062;11.722;2023-04-01T02:05:17;99293.63;;;9.19;100.00
47670;BME280;33408;52.062;11.722;2023-04-01T02:07:49;99292.06;;;9.15;100.00
47670;BME280;33408;52.062;11.722;2023-04-01T02:10:21;99298.00;;;9.17;100.00
47670;BME280;33408;52.062;11.722;2023-04-01T02:12:50;99292.56;;;9.24;100.00
47670;BME280;33408;52.062;11.722;2023-04-01T02:15:20;99297.78;;;9.23;100.00
47670;BME280;33408;52.062;11.722;2023-04-01T02:17:47;99288.19;;;9.26;100.00
47670;BME280;33408;52.062;11.722;2023-04-01T02:20:18;99294.22;;;9.25;100.00
47670;BME280;33408;52.062;11.722;2023-04-01T02:22:49;99294.75;;;9.35;100.00
47670;BME280;33408;52.062;11.722;2023-04-01T02:25:19;99293.25;;;9.29;100.00
47670;BME280;33408;52.062;11.722;2023-04-01T02:27:47;99297.75;;;9.24;100.00
47670;BME280;33408;52.062;11.722;2023-04-01T02:30:16;99299.47;;;9.24;100.00
47670;BME280;33408;52.062;11.722;2023-04-01T02:32:44;99295.00;;;9.29;100.00
47670;BME280;33408;52.062;11.722;2023-04-01T02:35:13;99296.75;;;9.27;100.00
47670;BME280;33408;52.062;11.722;2023-04-01T02:37:41;99295.31;;;9.20;100.00
47670;BME280;33408;52.062;11.722;2023-04-01T02:40:11;99294.34;;;9.22;100.00
47670;BME280;33408;52.062;11.722;2023-04-01T02:42:38;99290.16;;;9.20;100.00
47670;BME280;33408;52.062;11.722;2023-04-01T02:45:07;99291.41;;;9.08;100.00
47670;BME280;33408;52.062;11.722;2023-04-01T02:47:33;99293.84;;;9.12;100.00
47670;BME280;33408;52.062;11.722;2023-04-01T02:50:00;99295.41;;;9.17;100.00
47670;BME280;33408;52.062;11.722;2023-04-01T02:52:27;99295.69;;;9.09;100.00
47670;BME280;33408;52.062;11.722;2023-04-01T02:54:54;99297.69;;;9.01;100.00
47670;BME280;33408;52.062;11.722;2023-04-01T02:57:23;99301.75;;;9.08;100.00
47670;BME280;33408;52.062;11.722;2023-04-01T02:59:50;99299.41;;;9.02;100.00
47670;BME280;33408;52.062;11.722;2023-04-01T03:02:17;99300.13;;;9.05;100.00
47670;BME280;33408;52.062;11.722;2023-04-01T03:04:44;99301.63;;;9.11;100.00
47670;BME280;33408;52.062;11.722;2023-04-01T03:07:11;99304.53;;;9.03;100.00
47670;BME280;33408;52.062;11.722;2023-04-01T03:09:37;99305.91;;;9.12;100.00
47670;BME280;33408;52.062;11.722;2023-04-01T03:12:05;99304.38;;;9.06;100.00
47670;BME280;33408;52.062;11.722;2023-04-01T03:14:33;99299.22;;;9.06;100.00
47670;BME280;33408;52.062;11.722;2023-04-01T03:17:00;99299.44;;;9.00;100.00
47670;BME280;33408;52.062;11.722;2023-04-01T03:19:26;99306.09;;;9.07;100.00
47670;BME280;33408;52.062;11.722;2023-04-01T03:21:53;99302.66;;;9.07;100.00
47670;BME280;33408;52.062;11.722;2023-04-01T03:24:20;99308.63;;;9.09;100.00
47670;BME280;33408;52.062;11.722;2023-04-01T03:26:46;99304.63;;;9.00;100.00
47670;BME280;33408;52.062;11.722;2023-04-01T03:29:13;99305.47;;;9.01;100.00
47670;BME280;33408;52.062;11.722;2023-04-01T03:31:42;99311.81;;;8.92;100.00
47670;BME280;33408;52.062;11.722;2023-04-01T03:34:09;99311.75;;;8.93;100.00
47670;BME280;33408;52.062;11.722;2023-04-01T03:36:36;99311.50;;;9.00;100.00
47670;BME280;33408;52.062;11.722;2023-04-01T03:39:02;99307.22;;;9.00;100.00
47670;BME280;33408;52.062;11.722;2023-04-01T03:41:30;99307.88;;;9.05;100.00
47670;BME280;33408;52.062;11.722;2023-04-01T03:43:57;99313.22;;;9.01;100.00
47670;BME280;33408;52.062;11.722;2023-04-01T03:46:23;99317.59;;;8.99;100.00
47670;BME280;33408;52.062;11.722;2023-04-01T03:48:51;99315.13;;;8.96;100.00
47670;BME280;33408;52.062;11.722;2023-04-01T03:51:18;99314.38;;;8.92;100.00
47670;BME280;33408;52.062;11.722;2023-04-01T03:53:44;99315.38;;;8.88;100.00
47670;BME280;33408;52.062;11.722;2023-04-01T03:56:11;99314.38;;;8.92;100.00
47670;BME280;33408;52.062;11.722;2023-04-01T03:58:38;99317.81;;;8.92;100.00
47670;BME280;33408;52.062;11.722;2023-04-01T04:01:13;99322.13;;;8.92;100.00
47670;BME280;33408;52.062;11.722;2023-04-01T04:03:40;99319.41;;;8.95;100.00
47670;BME280;33408;52.062;11.722;2023-04-01T04:06:11;99320.19;;;8.99;100.00
47670;BME280;33408;52.062;11.722;2023-04-01T04:08:38;99318.63;;;8.93;100.00
47670;BME280;33408;52.062;11.722;2023-04-01T04:11:05;99330.03;;;8.87;100.00
47670;BME280;33408;52.062;11.722;2023-04-01T04:13:32;99315.28;;;8.91;100.00
47670;BME280;33408;52.062;11.722;2023-04-01T04:15:58;99325.06;;;8.81;100.00
47670;BME280;33408;52.062;11.722;2023-04-01T04:18:25;99324.72;;;8.92;100.00
47670;BME280;33408;52.062;11.722;2023-04-01T04:20:52;99329.13;;;8.88;100.00
47670;BME280;33408;52.062;11.722;2023-04-01T04:23:20;99329.94;;;8.90;100.00
47670;BME280;33408;52.062;11.722;2023-04-01T04:25:57;99329.22;;;8.85;100.00
47670;BME280;33408;52.062;11.722;2023-04-01T04:28:24;99331.13;;;8.80;100.00
47670;BME280;33408;52.062;11.722;2023-04-01T04:30:51;99327.72;;;8.80;100.00
47670;BME280;33408;52.062;11.722;2023-04-01T04:33:18;99334.78;;;8.74;100.00
47670;BME280;33408;52.062;11.722;2023-04-01T04:35:44;99341.53;;;8.79;100.00
47670;BME280;33408;52.062;11.722;2023-04-01T04:38:11;99337.91;;;8.84;100.00
47670;BME280;33408;52.062;11.722;2023-04-01T04:40:41;99341.16;;;8.89;100.00
47670;BME280;33408;52.062;11.722;2023-04-01T04:43:10;99340.44;;;8.86;100.00
47670;BME280;33408;52.062;11.722;2023-04-01T04:45:37;99343.94;;;8.83;100.00
47670;BME280;33408;52.062;11.722;2023-04-01T04:48:03;99340.59;;;8.81;100.00
47670;BME280;33408;52.062;11.722;2023-04-01T04:50:30;99340.44;;;8.86;100.00
47670;BME280;33408;52.062;11.722;2023-04-01T04:52:57;99352.53;;;8.84;100.00
47670;BME280;33408;52.062;11.722;2023-04-01T04:55:24;99344.06;;;8.80;100.00
47670;BME280;33408;52.062;11.722;2023-04-01T04:57:51;99347.50;;;8.81;100.00
47670;BME280;33408;52.062;11.722;2023-04-01T05:00:18;99348.25;;;8.84;100.00
47670;BME280;33408;52.062;11.722;2023-04-01T05:02:45;99349.06;;;8.85;100.00
47670;BME280;33408;52.062;11.722;2023-04-01T05:05:11;99345.94;;;8.75;100.00
47670;BME280;33408;52.062;11.722;2023-04-01T05:07:38;99357.03;;;8.79;100.00
47670;BME280;33408;52.062;11.722;2023-04-01T05:10:05;99354.53;;;8.75;100.00
47670;BME280;33408;52.062;11.722;2023-04-01T05:12:32;99360.34;;;8.82;100.00
47670;BME280;33408;52.062;11.722;2023-04-01T05:15:03;99360.41;;;8.81;100.00
47670;BME280;33408;52.062;11.722;2023-04-01T05:17:29;99354.44;;;8.79;100.00
47670;BME280;33408;52.062;11.722;2023-04-01T05:19:56;99358.63;;;8.83;100.00
47670;BME280;33408;52.062;11.722;2023-04-01T05:22:23;99362.78;;;8.87;100.00
47670;BME280;33408;52.062;11.722;2023-04-01T05:24:49;99367.75;;;8.93;100.00
47670;BME280;33408;52.062;11.722;2023-04-01T05:27:16;99362.69;;;8.90;100.00
47670;BME280;33408;52.062;11.722;2023-04-01T05:29:43;99365.47;;;8.84;100.00
47670;BME280;33408;52.062;11.722;2023-04-01T05:32:11;99370.31;;;8.93;100.00
47670;BME280;33408;52.062;11.722;2023-04-01T05:34:37;99376.34;;;8.93;100.00
47670;BME280;33408;52.062;11.722;2023-04-01T05:37:04;99363.25;;;8.98;100.00
47670;BME280;33408;52.062;11.722;2023-04-01T05:39:35;99370.44;;;8.90;100.00
47670;BME280;33408;52.062;11.722;2023-04-01T05:42:02;99366.31;;;9.09;100.00
47670;BME280;33408;52.062;11.722;2023-04-01T05:44:29;99378.66;;;9.01;100.00
47670;BME280;33408;52.062;11.722;2023-04-01T05:46:56;99367.53;;;8.99;100.00
47670;BME280;33408;52.062;11.722;2023-04-01T05:49:23;99368.03;;;9.10;100.00
47670;BME280;33408;52.062;11.722;2023-04-01T05:51:50;99369.97;;;9.04;100.00
47670;BME280;33408;52.062;11.722;2023-04-01T05:54:17;99371.06;;;9.22;100.00
47670;BME280;33408;52.062;11.722;2023-04-01T05:56:44;99378.88;;;9.20;100.00
47670;BME280;33408;52.062;11.722;2023-04-01T05:59:11;99376.72;;;9.33;100.00
47670;BME280;33408;52.062;11.722;2023-04-01T06:01:38;99376.28;;;9.45;100.00
47670;BME280;33408;52.062;11.722;2023-04-01T06:04:05;99370.59;;;9.59;100.00
47670;BME280;33408;52.062;11.722;2023-04-01T06:06:37;99373.38;;;9.78;100.00
47670;BME280;33408;52.062;11.722;2023-04-01T06:09:12;99376.06;;;9.99;100.00
47670;BME280;33408;52.062;11.722;2023-04-01T06:11:46;99376.78;;;10.02;100.00
47670;BME280;33408;52.062;11.722;2023-04-01T06:14:26;99372.91;;;10.14;100.00
47670;BME280;33408;52.062;11.722;2023-04-01T06:17:07;99374.69;;;10.12;100.00
47670;BME280;33408;52.062;11.722;2023-04-01T06:19:45;99378.06;;;10.14;100.00
47670;BME280;33408;52.062;11.722;2023-04-01T06:22:32;99378.75;;;10.19;100.00
47670;BME280;33408;52.062;11.722;2023-04-01T06:28:14;99382.75;;;10.27;100.00
47670;BME280;33408;52.062;11.722;2023-04-01T06:30:47;99391.47;;;10.26;100.00
47670;BME280;33408;52.062;11.722;2023-04-01T06:33:35;99392.81;;;10.36;100.00
47670;BME280;33408;52.062;11.722;2023-04-01T06:36:39;99392.44;;;10.45;100.00
47670;BME280;33408;52.062;11.722;2023-04-01T06:39:30;99393.94;;;10.51;100.00
47670;BME280;33408;52.062;11.722;2023-04-01T06:42:19;99392.81;;;10.58;100.00
47670;BME280;33408;52.062;11.722;2023-04-01T06:44:57;99396.78;;;10.45;100.00
47670;BME280;33408;52.062;11.722;2023-04-01T06:47:40;99393.41;;;10.65;100.00
47670;BME280;33408;52.062;11.722;2023-04-01T06:50:19;99399.63;;;10.38;100.00
47670;BME280;33408;52.062;11.722;2023-04-01T06:52:55;99398.88;;;10.57;100.00
47670;BME280;33408;52.062;11.722;2023-04-01T06:55:29;99406.78;;;10.54;100.00
47670;BME280;33408;52.062;11.722;2023-04-01T06:58:03;99401.53;;;10.77;100.00
47670;BME280;33408;52.062;11.722;2023-04-01T07:00:33;99400.06;;;10.70;100.00
47670;BME280;33408;52.062;11.722;2023-04-01T07:03:06;99402.13;;;10.62;100.00
47670;BME280;33408;52.062;11.722;2023-04-01T07:05:37;99402.53;;;10.53;100.00
47670;BME280;33408;52.062;11.722;2023-04-01T07:08:06;99400.47;;;10.61;100.00
47670;BME280;33408;52.062;11.722;2023-04-01T07:10:42;99401.88;;;10.68;100.00
47670;BME280;33408;52.062;11.722;2023-04-01T07:13:14;99399.28;;;10.68;100.00
47670;BME280;33408;52.062;11.722;2023-04-01T07:15:54;99418.78;;;10.56;100.00
47670;BME280;33408;52.062;11.722;2023-04-01T07:18:28;99406.06;;;10.72;100.00
47670;BME280;33408;52.062;11.722;2023-04-01T07:20:55;99411.13;;;10.75;100.00
47670;BME280;33408;52.062;11.722;2023-04-01T07:23:25;99409.66;;;10.68;100.00
47670;BME280;33408;52.062;11.722;2023-04-01T07:25:56;99420.09;;;10.67;100.00
47670;BME280;33408;52.062;11.722;2023-04-01T07:28:30;99415.53;;;10.94;100.00
47670;BME280;33408;52.062;11.722;2023-04-01T07:31:04;99416.09;;;10.80;100.00
47670;BME280;33408;52.062;11.722;2023-04-01T07:33:37;99418.91;;;10.96;100.00
47670;BME280;33408;52.062;11.722;2023-04-01T07:36:10;99426.69;;;10.96;100.00
47670;BME280;33408;52.062;11.722;2023-04-01T07:38:50;99423.59;;;11.08;100.00
47670;BME280;33408;52.062;11.722;2023-04-01T07:41:29;99426.41;;;11.24;100.00
47670;BME280;33408;52.062;11.722;2023-04-01T07:44:07;99424.81;;;11.20;100.00
47670;BME280;33408;52.062;11.722;2023-04-01T07:46:50;99432.84;;;11.55;100.00
47670;BME280;33408;52.062;11.722;2023-04-01T07:49:21;99435.91;;;11.44;100.00
47670;BME280;33408;52.062;11.722;2023-04-01T07:51:55;99427.06;;;11.69;100.00
47670;BME280;33408;52.062;11.722;2023-04-01T07:54:31;99438.03;;;11.96;100.00
47670;BME280;33408;52.062;11.722;2023-04-01T07:57:03;99439.69;;;11.77;100.00
47670;BME280;33408;52.062;11.722;2023-04-01T07:59:39;99438.72;;;11.79;100.00
47670;BME280;33408;52.062;11.722;2023-04-01T08:02:15;99440.31;;;12.02;100.00
47670;BME280;33408;52.062;11.722;2023-04-01T08:04:55;99444.88;;;11.97;100.00
47670;BME280;33408;52.062;11.722;2023-04-01T08:07:26;99437.72;;;12.21;100.00
47670;BME280;33408;52.062;11.722;2023-04-01T08:10:02;99436.50;;;11.91;100.00
47670;BME280;33408;52.062;11.722;2023-04-01T08:12:38;99437.88;;;12.18;100.00
47670;BME280;33408;52.062;11.722;2023-04-01T08:15:14;99442.00;;;12.03;100.00
47670;BME280;33408;52.062;11.722;2023-04-01T08:17:48;99446.31;;;12.04;100.00
47670;BME280;33408;52.062;11.722;2023-04-01T08:20:27;99440.66;;;12.14;100.00
47670;BME280;33408;52.062;11.722;2023-04-01T08:22:58;99444.28;;;12.30;100.00
47670;BME280;33408;52.062;11.722;2023-04-01T08:25:27;99444.22;;;12.49;100.00
47670;BME280;33408;52.062;11.722;2023-04-01T08:27:59;99445.31;;;12.45;100.00
47670;BME280;33408;52.062;11.722;2023-04-01T08:30:37;99447.00;;;12.46;100.00
47670;BME280;33408;52.062;11.722;2023-04-01T08:33:09;99441.00;;;12.44;100.00
47670;BME280;33408;52.062;11.722;2023-04-01T08:35:39;99442.91;;;12.40;100.00
47670;BME280;33408;52.062;11.722;2023-04-01T08:38:11;99448.22;;;12.75;100.00
47670;BME280;33408;52.062;11.722;2023-04-01T08:40:55;99446.38;;;12.77;100.00
47670;BME280;33408;52.062;11.722;2023-04-01T08:46:23;99442.72;;;12.99;100.00
47670;BME280;33408;52.062;11.722;2023-04-01T08:49:07;99445.78;;;12.90;100.00
47670;BME280;33408;52.062;11.722;2023-04-01T08:51:57;99446.84;;;13.73;100.00
47670;BME280;33408;52.062;11.722;2023-04-01T08:54:52;99443.81;;;13.12;100.00
47670;BME280;33408;52.062;11.722;2023-04-01T08:57:36;99446.72;;;13.06;100.00
47670;BME280;33408;52.062;11.722;2023-04-01T09:00:15;99450.91;;;13.26;100.00
47670;BME280;33408;52.062;11.722;2023-04-01T09:03:02;99444.56;;;13.14;100.00
47670;BME280;33408;52.062;11.722;2023-04-01T09:06:00;99442.19;;;13.10;100.00
47670;BME280;33408;52.062;11.722;2023-04-01T09:08:41;99445.03;;;13.23;100.00
47670;BME280;33408;52.062;11.722;2023-04-01T09:11:19;99442.94;;;13.12;100.00
47670;BME280;33408;52.062;11.722;2023-04-01T09:17:12;99450.84;;;13.28;100.00
47670;BME280;33408;52.062;11.722;2023-04-01T09:19:58;99449.25;;;13.08;100.00
47670;BME280;33408;52.062;11.722;2023-04-01T09:22:41;99446.81;;;13.22;100.00
47670;BME280;33408;52.062;11.722;2023-04-01T09:25:41;99454.88;;;13.35;100.00
47670;BME280;33408;52.062;11.722;2023-04-01T09:28:16;99452.09;;;13.21;100.00
47670;BME280;33408;52.062;11.722;2023-04-01T09:31:06;99458.16;;;13.39;100.00
47670;BME280;33408;52.062;11.722;2023-04-01T09:33:56;99452.75;;;13.24;100.00
47670;BME280;33408;52.062;11.722;2023-04-01T09:36:38;99457.34;;;13.19;100.00
47670;BME280;33408;52.062;11.722;2023-04-01T09:39:26;99457.59;;;13.32;100.00
47670;BME280;33408;52.062;11.722;2023-04-01T09:42:13;99460.38;;;13.46;100.00
47670;BME280;33408;52.062;11.722;2023-04-01T09:44:46;99462.91;;;13.48;100.00
47670;BME280;33408;52.062;11.722;2023-04-01T09:47:23;99458.38;;;13.85;100.00
47670;BME280;33408;52.062;11.722;2023-04-01T09:50:14;99459.50;;;13.63;100.00
47670;BME280;33408;52.062;11.722;2023-04-01T09:52:48;99461.50;;;13.58;100.00
47670;BME280;33408;52.062;11.722;2023-04-01T09:55:47;99461.78;;;13.70;100.00
47670;BME280;33408;52.062;11.722;2023-04-01T09:58:51;99468.75;;;13.69;100.00
47670;BME280;33408;52.062;11.722;2023-04-01T10:01:41;99466.75;;;13.74;100.00
47670;BME280;33408;52.062;11.722;2023-04-01T10:04:44;99468.72;;;13.86;100.00
47670;BME280;33408;52.062;11.722;2023-04-01T10:07:52;99478.78;;;13.77;100.00
47670;BME280;33408;52.062;11.722;2023-04-01T10:10:47;99478.84;;;14.09;100.00
47670;BME280;33408;52.062;11.722;2023-04-01T10:13:48;99471.66;;;14.14;100.00
47670;BME280;33408;52.062;11.722;2023-04-01T10:19:45;99473.69;;;14.88;100.00
47670;BME280;33408;52.062;11.722;2023-04-01T10:25:40;99478.81;;;14.74;100.00
47670;BME280;33408;52.062;11.722;2023-04-01T10:28:36;99477.53;;;14.17;100.00
47670;BME280;33408;52.062;11.722;2023-04-01T10:31:23;99480.06;;;14.19;100.00
47670;BME280;33408;52.062;11.722;2023-04-01T10:37:19;99475.88;;;14.48;100.00
47670;BME280;33408;52.062;11.722;2023-04-01T10:46:26;99481.56;;;14.39;100.00
47670;BME280;33408;52.062;11.722;2023-04-01T10:49:46;99480.56;;;14.41;100.00
47670;BME280;33408;52.062;11.722;2023-04-01T10:52:46;99486.44;;;14.29;100.00
47670;BME280;33408;52.062;11.722;2023-04-01T10:55:35;99485.78;;;14.41;100.00
47670;BME280;33408;52.062;11.722;2023-04-01T10:58:28;99481.28;;;14.61;100.00
47670;BME280;33408;52.062;11.722;2023-04-01T11:01:34;99479.47;;;14.46;100.00
47670;BME280;33408;52.062;11.722;2023-04-01T11:07:49;99473.91;;;15.00;100.00
47670;BME280;33408;52.062;11.722;2023-04-01T11:14:01;99477.38;;;14.84;100.00
47670;BME280;33408;52.062;11.722;2023-04-01T11:16:58;99479.97;;;14.84;100.00
47670;BME280;33408;52.062;11.722;2023-04-01T11:20:17;99487.13;;;14.33;100.00
47670;BME280;33408;52.062;11.722;2023-04-01T11:23:14;99491.66;;;14.45;100.00
47670;BME280;33408;52.062;11.722;2023-04-01T11:25:56;99494.88;;;14.50;100.00
47670;BME280;33408;52.062;11.722;2023-04-01T11:31:49;99489.81;;;14.15;100.00
47670;BME280;33408;52.062;11.722;2023-04-01T11:34:34;99501.75;;;14.35;100.00
47670;BME280;33408;52.062;11.722;2023-04-01T11:37:15;99503.47;;;14.03;100.00
47670;BME280;33408;52.062;11.722;2023-04-01T11:39:48;99515.03;;;13.81;100.00
47670;BME280;33408;52.062;11.722;2023-04-01T11:42:30;99518.09;;;13.37;100.00
47670;BME280;33408;52.062;11.722;2023-04-01T11:45:12;99517.75;;;12.89;100.00
47670;BME280;33408;52.062;11.722;2023-04-01T11:47:55;99522.16;;;13.43;100.00
47670;BME280;33408;52.062;11.722;2023-04-01T11:50:31;99518.59;;;13.09;100.00
47670;BME280;33408;52.062;11.722;2023-04-01T11:53:26;99531.91;;;13.20;100.00
47670;BME280;33408;52.062;11.722;2023-04-01T11:56:09;99530.88;;;13.05;100.00
47670;BME280;33408;52.062;11.722;2023-04-01T11:59:15;99530.34;;;12.80;100.00
47670;BME280;33408;52.062;11.722;2023-04-01T12:01:50;99536.50;;;12.59;100.00
47670;BME280;33408;52.062;11.722;2023-04-01T12:04:37;99538.81;;;12.66;100.00
47670;BME280;33408;52.062;11.722;2023-04-01T12:07:14;99543.81;;;12.70;100.00
47670;BME280;33408;52.062;11.722;2023-04-01T12:09:48;99537.25;;;12.62;100.00
47670;BME280;33408;52.062;11.722;2023-04-01T12:12:27;99542.44;;;12.81;100.00
47670;BME280;33408;52.062;11.722;2023-04-01T12:15:05;99538.06;;;13.00;100.00
47670;BME280;33408;52.062;11.722;2023-04-01T12:17:43;99532.25;;;12.95;100.00
47670;BME280;33408;52.062;11.722;2023-04-01T12:20:38;99542.84;;;13.09;100.00
47670;BME280;33408;52.062;11.722;2023-04-01T12:23:27;99540.84;;;13.34;100.00
47670;BME280;33408;52.062;11.722;2023-04-01T12:26:12;99531.56;;;13.63;100.00
47670;BME280;33408;52.062;11.722;2023-04-01T12:28:54;99529.41;;;13.54;100.00
47670;BME280;33408;52.062;11.722;2023-04-01T12:31:34;99534.78;;;13.50;100.00
47670;BME280;33408;52.062;11.722;2023-04-01T12:34:44;99539.97;;;13.50;100.00
47670;BME280;33408;52.062;11.722;2023-04-01T12:37:20;99541.75;;;13.85;100.00
47670;BME280;33408;52.062;11.722;2023-04-01T12:40:02;99545.53;;;14.13;100.00
47670;BME280;33408;52.062;11.722;2023-04-01T12:42:47;99549.81;;;14.14;100.00
47670;BME280;33408;52.062;11.722;2023-04-01T12:45:31;99545.56;;;14.29;100.00
47670;BME280;33408;52.062;11.722;2023-04-01T12:48:10;99543.75;;;14.13;100.00
47670;BME280;33408;52.062;11.722;2023-04-01T12:50:59;99553.69;;;14.22;100.00
47670;BME280;33408;52.062;11.722;2023-04-01T12:53:41;99557.81;;;14.44;100.00
47670;BME280;33408;52.062;11.722;2023-04-01T12:56:14;99557.50;;;14.66;100.00
47670;BME280;33408;52.062;11.722;2023-04-01T13:01:53;99554.72;;;14.20;100.00
47670;BME280;33408;52.062;11.722;2023-04-01T13:04:51;99560.06;;;14.50;100.00
47670;BME280;33408;52.062;11.722;2023-04-01T13:07:39;99555.78;;;14.49;100.00
47670;BME280;33408;52.062;11.722;2023-04-01T13:10:15;99566.31;;;14.95;100.00
47670;BME280;33408;52.062;11.722;2023-04-01T13:13:01;99570.78;;;14.77;100.00
47670;BME280;33408;52.062;11.722;2023-04-01T13:15:37;99566.44;;;14.45;100.00
47670;BME280;33408;52.062;11.722;2023-04-01T13:18:20;99567.09;;;14.82;100.00
47670;BME280;33408;52.062;11.722;2023-04-01T13:20:56;99567.59;;;14.88;100.00
47670;BME280;33408;52.062;11.722;2023-04-01T13:23:37;99577.78;;;14.61;100.00
47670;BME280;33408;52.062;11.722;2023-04-01T13:26:13;99577.53;;;14.82;100.00
47670;BME280;33408;52.062;11.722;2023-04-01T13:28:47;99580.81;;;14.69;100.00
47670;BME280;33408;52.062;11.722;2023-04-01T13:31:28;99576.81;;;14.46;100.00
47670;BME280;33408;52.062;11.722;2023-04-01T13:34:09;99587.75;;;14.53;100.00
47670;BME280;33408;52.062;11.722;2023-04-01T13:36:50;99584.78;;;14.61;100.00
47670;BME280;33408;52.062;11.722;2023-04-01T13:39:27;99584.38;;;14.51;100.00
47670;BME280;33408;52.062;11.722;2023-04-01T13:42:17;99586.56;;;14.43;100.00
47670;BME280;33408;52.062;11.722;2023-04-01T13:44:51;99590.88;;;14.26;100.00
47670;BME280;33408;52.062;11.722;2023-04-01T13:50:53;99596.72;;;14.31;100.00
47670;BME280;33408;52.062;11.722;2023-04-01T13:53:36;99590.53;;;13.99;100.00
47670;BME280;33408;52.062;11.722;2023-04-01T13:56:16;99592.97;;;14.02;100.00
47670;BME280;33408;52.062;11.722;2023-04-01T13:59:00;99593.91;;;14.34;100.00
47670;BME280;33408;52.062;11.722;2023-04-01T14:01:33;99600.59;;;15.98;100.00
47670;BME280;33408;52.062;11.722;2023-04-01T14:04:37;99604.63;;;15.73;100.00
47670;BME280;33408;52.062;11.722;2023-04-01T14:07:18;99605.34;;;15.45;100.00
47670;BME280;33408;52.062;11.722;2023-04-01T14:10:00;99605.47;;;13.95;100.00
47670;BME280;33408;52.062;11.722;2023-04-01T14:12:36;99607.44;;;13.55;100.00
47670;BME280;33408;52.062;11.722;2023-04-01T14:15:23;99618.28;;;13.09;100.00
47670;BME280;33408;52.062;11.722;2023-04-01T14:20:53;99625.59;;;12.82;100.00